Time;durP1;ratioP1;P1;durP2;ratioP2;P2;SDS_P1;SDS_P2;PMS_P1;PMS_P2;Temp;Humidity;BMP_temperature;BMP_pressure;BME280_temperature;BME280_humidity;BME280_pressure;Samples;Min_cycle;Max_cycle;Signal;HPM_P1;HPM_P2
2021/11/18 00:00:42;;;;;;;14.57;8.53;;;7.00;93.00;;;;;;5088647;28;20943;-76
2021/11/18 00:03:10;;;;;;;14.27;9.50;;;7.00;93.10;;;;;;5086729;28;20486;-73
2021/11/18 00:05:36;;;;;;;15.63;9.53;;;6.90;93.10;;;;;;5088708;28;20912;-74
2021/11/18 00:08:04;;;;;;;17.07;8.80;;;7.00;93.20;;;;;;5089020;28;20457;-75
2021/11/18 00:10:44;;;;;;;15.83;9.57;;;7.00;93.10;;;;;;5080523;28;20422;-74
2021/11/18 00:13:13;;;;;;;13.53;8.57;;;7.10;93.20;;;;;;5088441;28;20420;-76
2021/11/18 00:15:41;;;;;;;15.87;9.30;;;7.10;93.20;;;;;;5087632;28;20425;-75
2021/11/18 00:18:09;;;;;;;18.03;10.63;;;7.10;93.20;;;;;;5086372;28;21024;-74
2021/11/18 00:20:42;;;;;;;14.93;8.80;;;7.10;93.20;;;;;;5088413;28;20452;-74
2021/11/18 00:23:09;;;;;;;16.70;9.60;;;7.10;93.20;;;;;;5088337;28;20460;-75
2021/11/18 00:25:35;;;;;;;14.90;9.63;;;7.20;93.10;;;;;;5087916;28;20425;-74
2021/11/18 00:28:01;;;;;;;18.87;9.00;;;7.20;93.10;;;;;;5087028;28;20814;-75
2021/11/18 00:30:27;;;;;;;15.83;9.20;;;7.20;93.20;;;;;;5088295;28;20401;-76
2021/11/18 00:32:53;;;;;;;19.67;9.20;;;7.20;93.00;;;;;;5087862;28;20481;-76
2021/11/18 00:35:26;;;;;;;16.70;8.80;;;7.20;93.00;;;;;;5087521;28;20417;-74
2021/11/18 00:37:52;;;;;;;13.33;8.20;;;7.20;93.00;;;;;;5088982;28;20444;-76
2021/11/18 00:40:22;;;;;;;15.80;8.87;;;7.30;93.10;;;;;;5090248;28;20444;-74
2021/11/18 00:42:47;;;;;;;11.77;8.07;;;7.40;93.00;;;;;;5085091;28;20466;-75
2021/11/18 00:45:19;;;;;;;13.00;8.13;;;7.50;92.90;;;;;;5091231;28;20432;-76
2021/11/18 00:47:45;;;;;;;15.47;8.73;;;7.60;92.80;;;;;;5085344;28;20580;-74
2021/11/18 00:50:11;;;;;;;13.23;7.50;;;7.70;92.50;;;;;;5092075;28;20425;-77
2021/11/18 00:52:37;;;;;;;11.97;7.30;;;7.70;92.00;;;;;;5091885;28;20716;-76
2021/11/18 00:55:07;;;;;;;13.67;8.00;;;7.70;91.90;;;;;;5091399;28;20420;-75
2021/11/18 00:57:34;;;;;;;13.37;7.67;;;7.70;92.00;;;;;;5083243;28;20447;-73
2021/11/18 01:00:00;;;;;;;13.50;7.67;;;7.70;91.80;;;;;;5086001;28;20781;-75
2021/11/18 01:02:26;;;;;;;12.90;7.67;;;7.60;91.80;;;;;;5091537;28;20420;-74
2021/11/18 01:04:52;;;;;;;14.80;8.20;;;7.70;91.60;;;;;;5091039;28;20444;-73
2021/11/18 01:07:17;;;;;;;14.17;8.00;;;7.60;91.30;;;;;;5091266;28;20207;-75
2021/11/18 01:09:43;;;;;;;16.50;7.57;;;7.50;91.20;;;;;;5090471;28;20211;-75
2021/11/18 01:12:10;;;;;;;14.20;7.80;;;7.50;91.50;;;;;;5090600;28;20233;-73
2021/11/18 01:14:37;;;;;;;10.67;7.20;;;7.40;91.50;;;;;;5090980;28;20205;-76
2021/11/18 01:17:03;;;;;;;11.40;7.00;;;7.40;91.80;;;;;;5090768;28;20866;-75
2021/11/18 01:19:31;;;;;;;11.67;6.60;;;7.50;91.60;;;;;;5091744;28;20421;-75
2021/11/18 01:21:58;;;;;;;13.07;7.40;;;7.60;91.40;;;;;;5091840;28;20222;-74
2021/11/18 01:24:24;;;;;;;11.80;6.80;;;7.60;91.50;;;;;;5091488;28;20862;-75
2021/11/18 01:26:50;;;;;;;13.83;7.33;;;7.40;91.50;;;;;;5090672;28;20484;-75
2021/11/18 01:29:16;;;;;;;12.43;7.30;;;7.50;91.80;;;;;;5090286;28;20463;-75
2021/11/18 01:31:42;;;;;;;10.60;6.70;;;7.50;91.80;;;;;;5091744;28;20522;-74
2021/11/18 01:34:08;;;;;;;12.40;7.23;;;7.50;91.80;;;;;;5090812;28;20233;-77
2021/11/18 01:36:35;;;;;;;11.77;7.03;;;7.60;91.60;;;;;;5091184;28;20421;-77
2021/11/18 01:39:04;;;;;;;11.73;6.47;;;7.60;91.70;;;;;;5091376;28;20183;-76
2021/11/18 01:41:31;;;;;;;11.33;7.03;;;7.70;91.80;;;;;;5085287;28;20456;-75
2021/11/18 01:44:03;;;;;;;11.60;6.70;;;7.70;92.00;;;;;;5095239;28;20524;-75
2021/11/18 01:46:32;;;;;;;9.83;6.87;;;7.70;92.20;;;;;;5087608;28;20448;-76
2021/11/18 01:48:59;;;;;;;11.50;7.43;;;7.70;92.30;;;;;;5091432;28;20497;-76
2021/11/18 01:51:32;;;;;;;12.33;7.90;;;7.80;92.30;;;;;;5093892;28;20413;-76
2021/11/18 01:53:59;;;;;;;16.33;7.47;;;7.70;92.30;;;;;;5093719;28;20532;-76
2021/11/18 01:56:28;;;;;;;10.80;6.83;;;7.60;92.10;;;;;;5091209;28;20455;-77
2021/11/18 01:59:00;;;;;;;12.23;6.90;;;7.50;92.20;;;;;;5081144;28;20429;-77
2021/11/18 02:01:26;;;;;;;10.80;6.47;;;7.50;92.60;;;;;;5090171;28;20416;-76
2021/11/18 02:03:52;;;;;;;13.23;7.87;;;7.50;92.70;;;;;;5089530;28;20421;-77
2021/11/18 02:06:34;;;;;;;13.07;7.70;;;7.50;92.80;;;;;;5088310;28;20429;-78
2021/11/18 02:09:02;;;;;;;15.60;7.57;;;7.50;92.70;;;;;;5086038;28;20460;-76
2021/11/18 02:11:30;;;;;;;11.17;7.13;;;7.60;92.80;;;;;;5090413;28;20429;-77
2021/11/18 02:13:58;;;;;;;14.20;7.77;;;7.50;92.60;;;;;;5089682;28;20425;-75
2021/11/18 02:16:24;;;;;;;12.50;7.93;;;7.30;92.60;;;;;;5089978;28;20421;-77
2021/11/18 02:18:51;;;;;;;13.03;8.13;;;7.30;92.90;;;;;;5089786;28;20448;-77
2021/11/18 02:21:18;;;;;;;13.57;7.50;;;7.30;93.20;;;;;;5090111;28;20418;-76
2021/11/18 02:23:53;;;;;;;11.30;7.60;;;7.30;93.50;;;;;;5089275;28;20425;-77
2021/11/18 02:26:21;;;;;;;13.00;7.90;;;7.30;93.40;;;;;;5089435;28;20470;-77
2021/11/18 02:28:52;;;;;;;14.70;8.00;;;7.30;93.40;;;;;;5089515;28;20468;-77
2021/11/18 02:31:23;;;;;;;11.80;6.70;;;7.30;93.20;;;;;;5089733;28;20428;-77
2021/11/18 02:33:50;;;;;;;11.20;7.10;;;7.40;93.30;;;;;;5089623;28;20422;-75
2021/11/18 02:36:15;;;;;;;14.50;7.00;;;7.50;93.20;;;;;;5090058;28;20500;-75
2021/11/18 02:38:42;;;;;;;12.90;7.37;;;7.50;93.20;;;;;;5089945;28;20586;-74
2021/11/18 02:41:11;;;;;;;12.30;7.10;;;7.50;93.10;;;;;;5092029;28;20211;-75
2021/11/18 02:43:37;;;;;;;11.70;7.27;;;7.50;93.20;;;;;;5088107;28;20436;-75
2021/11/18 02:46:03;;;;;;;15.43;8.13;;;7.60;93.10;;;;;;5088561;28;20429;-74
2021/11/18 02:48:29;;;;;;;12.83;7.77;;;7.70;93.00;;;;;;5089307;28;21185;-75
2021/11/18 02:50:58;;;;;;;12.00;7.07;;;7.50;92.80;;;;;;5090430;28;20950;-75
2021/11/18 02:53:24;;;;;;;12.90;7.20;;;7.50;92.90;;;;;;5089582;28;20194;-75
2021/11/18 02:55:51;;;;;;;10.10;6.70;;;7.60;93.10;;;;;;5091098;28;20443;-75
2021/11/18 02:58:18;;;;;;;14.87;8.37;;;7.60;92.90;;;;;;5089928;28;20445;-76
2021/11/18 03:00:53;;;;;;;13.90;6.87;;;7.50;92.70;;;;;;5089826;28;21148;-74
2021/11/18 03:03:19;;;;;;;11.03;6.20;;;7.50;93.00;;;;;;5089255;28;20425;-74
2021/11/18 03:05:46;;;;;;;8.80;6.10;;;7.60;93.30;;;;;;5090811;28;20440;-73
2021/11/18 03:08:12;;;;;;;13.53;7.10;;;7.70;93.40;;;;;;5090658;28;20536;-75
2021/11/18 03:10:38;;;;;;;14.17;7.80;;;7.70;93.40;;;;;;5091754;28;20816;-75
2021/11/18 03:13:04;;;;;;;11.43;6.77;;;7.70;93.30;;;;;;5089876;28;20204;-73
2021/11/18 03:15:30;;;;;;;9.80;6.00;;;7.80;93.10;;;;;;5089676;28;20189;-76
2021/11/18 03:17:56;;;;;;;8.63;5.43;;;7.80;93.00;;;;;;5102023;28;20441;-75
2021/11/18 03:20:25;;;;;;;12.67;7.33;;;7.80;93.00;;;;;;5097402;28;20262;-75
2021/11/18 03:22:51;;;;;;;12.93;7.13;;;7.80;92.90;;;;;;5098892;28;20417;-74
2021/11/18 03:25:21;;;;;;;11.83;6.97;;;7.80;92.60;;;;;;5095858;28;20421;-74
2021/11/18 03:27:48;;;;;;;13.07;6.83;;;7.90;92.50;;;;;;5088728;28;20479;-75
2021/11/18 03:30:22;;;;;;;12.23;6.93;;;7.90;92.50;;;;;;5089292;28;20417;-76
2021/11/18 03:32:52;;;;;;;13.90;7.10;;;8.00;92.40;;;;;;5087868;28;20905;-75
2021/11/18 03:35:18;;;;;;;12.97;7.87;;;7.90;92.30;;;;;;5086649;28;20795;-74
2021/11/18 03:37:44;;;;;;;12.70;7.33;;;7.70;92.10;;;;;;5087701;28;21023;-77
2021/11/18 03:40:11;;;;;;;12.20;6.63;;;7.70;92.80;;;;;;5088694;28;20440;-75
2021/11/18 03:42:36;;;;;;;12.43;7.20;;;7.70;92.90;;;;;;5088882;28;20979;-74
2021/11/18 03:45:05;;;;;;;12.80;6.50;;;7.80;93.10;;;;;;5088433;28;20470;-74
2021/11/18 03:47:30;;;;;;;14.50;7.80;;;7.80;92.90;;;;;;5087943;28;20222;-75
2021/11/18 03:49:57;;;;;;;15.50;8.80;;;7.70;92.80;;;;;;5087142;28;20986;-76
2021/11/18 03:52:24;;;;;;;13.03;7.20;;;7.70;92.90;;;;;;5088736;28;20184;-75
2021/11/18 03:54:50;;;;;;;11.93;7.03;;;7.70;92.90;;;;;;5087990;28;21028;-73
2021/11/18 03:57:16;;;;;;;11.30;6.70;;;7.70;92.80;;;;;;5087805;28;20476;-74
2021/11/18 03:59:44;;;;;;;14.20;8.20;;;7.80;92.80;;;;;;5089075;28;20448;-75
2021/11/18 04:02:10;;;;;;;12.80;7.60;;;7.80;93.00;;;;;;5090219;28;20836;-75
2021/11/18 04:04:42;;;;;;;10.10;6.50;;;7.90;93.10;;;;;;5088029;28;20433;-76
2021/11/18 04:07:10;;;;;;;11.63;7.10;;;7.90;93.10;;;;;;5086082;28;20460;-76
2021/11/18 04:09:36;;;;;;;12.63;7.27;;;7.90;93.10;;;;;;5088773;28;20504;-74
2021/11/18 04:12:03;;;;;;;12.80;7.47;;;7.80;93.00;;;;;;5088266;28;20425;-75
2021/11/18 04:14:31;;;;;;;13.27;6.80;;;7.90;93.00;;;;;;5079810;28;20962;-75
2021/11/18 04:16:58;;;;;;;11.40;7.07;;;7.90;92.90;;;;;;5083223;28;20969;-76
2021/11/18 04:19:24;;;;;;;12.70;7.60;;;7.90;93.00;;;;;;5087407;28;20432;-76
2021/11/18 04:21:52;;;;;;;10.90;6.80;;;7.90;93.20;;;;;;5083308;28;20432;-74
2021/11/18 04:24:29;;;;;;;11.10;6.57;;;7.90;93.40;;;;;;5086707;28;20464;-74
2021/11/18 04:26:55;;;;;;;12.73;7.27;;;7.90;93.50;;;;;;5089669;28;20456;-74
2021/11/18 04:29:28;;;;;;;12.63;7.00;;;7.90;93.20;;;;;;5091427;28;20484;-75
2021/11/18 04:32:06;;;;;;;13.50;7.83;;;7.80;93.10;;;;;;5090907;28;20428;-74
2021/11/18 04:34:34;;;;;;;13.20;8.10;;;7.80;93.20;;;;;;5090740;28;20794;-75
2021/11/18 04:36:59;;;;;;;13.57;7.97;;;7.70;93.30;;;;;;5092383;28;20445;-74
2021/11/18 04:39:25;;;;;;;13.07;7.33;;;7.70;93.50;;;;;;5098532;28;20413;-74
2021/11/18 04:41:51;;;;;;;15.50;7.83;;;7.80;93.40;;;;;;5096577;28;20202;-74
2021/11/18 04:44:19;;;;;;;15.50;7.93;;;7.80;93.20;;;;;;5095732;28;20191;-74
2021/11/18 04:46:45;;;;;;;14.63;7.80;;;7.80;93.30;;;;;;5092046;28;20413;-74
2021/11/18 04:49:11;;;;;;;12.67;7.03;;;7.80;93.40;;;;;;5093662;28;20537;-74
2021/11/18 04:51:37;;;;;;;15.20;7.80;;;7.80;93.50;;;;;;5101205;28;20497;-75
2021/11/18 04:54:03;;;;;;;12.43;7.40;;;7.80;93.50;;;;;;5097470;28;20837;-74
2021/11/18 04:56:30;;;;;;;14.73;8.27;;;7.80;93.60;;;;;;5088235;28;20183;-75
2021/11/18 04:58:57;;;;;;;14.27;8.07;;;7.80;93.80;;;;;;5088939;28;20449;-76
2021/11/18 05:01:23;;;;;;;12.73;8.17;;;7.80;93.60;;;;;;5088844;28;20439;-73
2021/11/18 05:03:51;;;;;;;18.43;8.40;;;7.80;93.80;;;;;;5086550;28;20453;-75
2021/11/18 05:06:17;;;;;;;17.23;8.97;;;7.80;94.00;;;;;;5086607;28;20513;-74
2021/11/18 05:08:42;;;;;;;18.20;8.90;;;7.80;94.00;;;;;;5088060;28;20489;-76
2021/11/18 05:11:08;;;;;;;16.10;8.10;;;7.80;94.00;;;;;;5088241;28;20417;-76
2021/11/18 05:13:34;;;;;;;13.00;8.00;;;7.80;93.90;;;;;;5087516;28;20179;-74
2021/11/18 05:16:04;;;;;;;19.27;9.10;;;7.80;93.90;;;;;;5088663;28;20429;-76
2021/11/18 05:18:30;;;;;;;16.40;7.50;;;7.80;94.00;;;;;;5087230;28;20234;-74
2021/11/18 05:20:57;;;;;;;14.33;8.20;;;7.80;94.10;;;;;;5088859;28;21056;-75
2021/11/18 05:23:23;;;;;;;14.73;8.00;;;7.80;94.20;;;;;;5088703;28;20418;-75
2021/11/18 05:25:49;;;;;;;19.27;9.30;;;7.90;94.20;;;;;;5090608;28;20504;-74
2021/11/18 05:28:15;;;;;;;14.70;8.70;;;7.90;94.20;;;;;;5090642;28;20555;-75
2021/11/18 05:30:41;;;;;;;16.90;8.93;;;7.90;94.10;;;;;;5092351;28;20183;-76
2021/11/18 05:33:12;;;;;;;15.50;8.57;;;8.00;93.90;;;;;;5092011;28;20220;-76
2021/11/18 05:35:38;;;;;;;17.93;9.00;;;8.00;93.90;;;;;;5091655;28;20875;-74
2021/11/18 05:38:05;;;;;;;18.47;9.07;;;8.00;93.70;;;;;;5091487;28;20865;-75
2021/11/18 05:40:32;;;;;;;12.80;8.10;;;8.00;93.60;;;;;;5093042;28;20437;-75
2021/11/18 05:42:58;;;;;;;18.43;9.97;;;7.90;93.50;;;;;;5092564;28;20475;-76
2021/11/18 05:45:27;;;;;;;16.93;9.00;;;7.90;93.50;;;;;;5092794;28;20417;-74
2021/11/18 05:47:53;;;;;;;19.10;10.10;;;8.00;93.60;;;;;;5094645;28;20459;-76
2021/11/18 05:50:21;;;;;;;18.30;9.23;;;7.90;93.80;;;;;;5091289;28;20421;-75
2021/11/18 05:52:47;;;;;;;18.67;9.60;;;7.90;93.80;;;;;;5091962;28;20421;-76
2021/11/18 05:55:15;;;;;;;14.50;8.00;;;8.00;93.70;;;;;;5091172;28;20421;-75
2021/11/18 05:57:42;;;;;;;13.97;9.17;;;8.00;93.60;;;;;;5091268;28;20476;-75
2021/11/18 06:00:11;;;;;;;15.53;7.90;;;7.90;93.40;;;;;;5089485;28;20444;-74
2021/11/18 06:02:37;;;;;;;18.50;9.10;;;7.90;93.50;;;;;;5092587;28;20449;-75
2021/11/18 06:05:04;;;;;;;16.30;8.87;;;7.90;93.60;;;;;;5088534;28;21302;-74
2021/11/18 06:07:33;;;;;;;17.37;9.83;;;7.80;93.60;;;;;;5108782;27;20457;-76
2021/11/18 06:09:59;;;;;;;14.23;8.63;;;7.80;93.80;;;;;;5092730;28;20464;-75
2021/11/18 06:12:25;;;;;;;15.93;8.90;;;7.90;94.00;;;;;;5097049;28;20406;-75
2021/11/18 06:14:52;;;;;;;18.23;9.50;;;7.90;94.00;;;;;;5094459;28;20584;-75
2021/11/18 06:17:18;;;;;;;16.13;9.00;;;7.90;93.90;;;;;;5090636;28;20233;-74
2021/11/18 06:19:44;;;;;;;15.33;8.57;;;7.90;94.00;;;;;;5090804;28;20449;-74
2021/11/18 06:22:10;;;;;;;18.20;9.43;;;7.90;94.00;;;;;;5090591;28;20432;-75
2021/11/18 06:24:37;;;;;;;15.80;9.07;;;7.90;94.10;;;;;;5089933;28;20190;-75
2021/11/18 06:27:03;;;;;;;14.97;8.67;;;7.90;94.20;;;;;;5089929;28;21275;-75
2021/11/18 06:29:30;;;;;;;22.10;11.57;;;8.00;94.30;;;;;;5091716;28;20454;-76
2021/11/18 06:31:59;;;;;;;19.43;10.00;;;8.10;94.30;;;;;;5099200;28;20413;-75
2021/11/18 06:34:26;;;;;;;20.83;10.73;;;8.00;94.10;;;;;;5097755;28;20409;-75
2021/11/18 06:36:52;;;;;;;27.73;12.40;;;8.00;93.80;;;;;;5091247;28;21156;-74
2021/11/18 06:39:19;;;;;;;19.60;9.40;;;7.80;93.30;;;;;;5089528;28;20478;-76
2021/11/18 06:41:45;;;;;;;22.83;9.77;;;7.70;93.50;;;;;;5090890;28;20777;-74
2021/11/18 06:44:12;;;;;;;30.63;11.90;;;7.80;93.90;;;;;;5089381;28;20427;-75
2021/11/18 06:46:39;;;;;;;21.80;11.27;;;7.90;93.90;;;;;;5089724;28;20467;-76
2021/11/18 06:49:08;;;;;;;23.10;10.87;;;7.80;93.80;;;;;;5090405;28;20488;-75
2021/11/18 06:51:38;;;;;;;24.87;9.93;;;7.90;94.00;;;;;;5090034;28;21263;-76
2021/11/18 06:54:04;;;;;;;25.90;11.90;;;7.90;93.90;;;;;;5086600;28;20421;-77
2021/11/18 06:56:30;;;;;;;22.73;10.80;;;7.90;93.60;;;;;;5091284;28;21120;-76
2021/11/18 06:58:56;;;;;;;27.37;11.70;;;7.80;93.60;;;;;;5085233;28;20430;-74
2021/11/18 07:01:22;;;;;;;23.80;12.10;;;7.70;93.60;;;;;;5088187;28;20447;-76
2021/11/18 07:03:48;;;;;;;21.20;11.23;;;7.60;93.90;;;;;;5088483;28;20237;-75
2021/11/18 07:06:19;;;;;;;26.20;12.57;;;7.60;94.20;;;;;;5089368;28;20995;-75
2021/11/18 07:08:45;;;;;;;29.20;11.80;;;7.60;94.10;;;;;;5089125;28;20472;-75
2021/11/18 07:11:13;;;;;;;22.90;10.90;;;7.70;94.30;;;;;;5090326;28;20520;-74
2021/11/18 07:13:39;;;;;;;25.33;11.57;;;7.70;94.30;;;;;;5089736;28;20988;-76
2021/11/18 07:16:09;;;;;;;32.30;13.50;;;7.70;94.20;;;;;;5090131;28;20970;-76
2021/11/18 07:18:35;;;;;;;28.13;12.10;;;7.70;94.20;;;;;;5083243;28;20539;-76
2021/11/18 07:21:02;;;;;;;25.40;12.40;;;7.70;94.20;;;;;;5090730;28;20429;-74
2021/11/18 07:23:29;;;;;;;25.27;11.90;;;7.60;94.20;;;;;;5089469;28;20868;-76
2021/11/18 07:25:57;;;;;;;30.63;12.80;;;7.70;94.40;;;;;;5090052;28;20917;-76
2021/11/18 07:28:24;;;;;;;26.37;11.93;;;7.70;94.30;;;;;;5092557;28;20473;-76
2021/11/18 07:30:52;;;;;;;22.27;10.87;;;7.70;94.30;;;;;;5089870;28;20437;-75
2021/11/18 07:33:19;;;;;;;23.80;11.27;;;7.70;94.20;;;;;;5090190;28;20473;-75
2021/11/18 07:35:50;;;;;;;24.73;11.80;;;7.70;94.20;;;;;;5092040;28;20436;-75
2021/11/18 07:38:17;;;;;;;28.60;12.37;;;7.70;94.10;;;;;;5095440;28;20528;-74
2021/11/18 07:40:44;;;;;;;19.00;10.10;;;7.70;94.20;;;;;;5097981;28;20445;-76
2021/11/18 07:43:13;;;;;;;22.83;10.67;;;7.80;94.10;;;;;;5102674;28;20421;-74
2021/11/18 07:45:38;;;;;;;22.77;10.13;;;7.90;93.80;;;;;;5104918;28;20425;-75
2021/11/18 07:48:04;;;;;;;25.63;11.47;;;7.80;93.60;;;;;;5103952;28;20872;-75
2021/11/18 07:50:30;;;;;;;20.60;11.13;;;7.90;93.50;;;;;;5102940;28;20175;-75
2021/11/18 07:52:59;;;;;;;24.27;11.27;;;7.90;93.50;;;;;;5090589;28;20187;-75
2021/11/18 07:55:28;;;;;;;22.30;10.33;;;7.90;93.60;;;;;;5094170;28;20428;-75
2021/11/18 07:57:54;;;;;;;26.50;12.33;;;8.00;93.50;;;;;;5095136;28;20457;-75
2021/11/18 08:00:22;;;;;;;24.27;11.10;;;8.00;93.50;;;;;;5094024;28;20425;-76
2021/11/18 08:02:47;;;;;;;27.77;12.53;;;8.10;93.60;;;;;;5096317;28;20197;-75
2021/11/18 08:05:14;;;;;;;29.17;11.47;;;8.20;93.40;;;;;;5090557;28;20425;-75
2021/11/18 08:07:41;;;;;;;23.07;10.60;;;8.30;92.90;;;;;;5090098;28;20253;-76
2021/11/18 08:10:08;;;;;;;24.37;10.50;;;8.20;92.70;;;;;;5092808;28;20559;-74
2021/11/18 08:12:36;;;;;;;19.70;11.10;;;8.20;92.70;;;;;;5102929;28;20421;-76
2021/11/18 08:15:07;;;;;;;22.97;10.40;;;8.10;93.10;;;;;;5093755;28;20457;-76
2021/11/18 08:17:33;;;;;;;30.30;13.00;;;8.10;93.30;;;;;;5081731;28;20440;-76
2021/11/18 08:19:59;;;;;;;24.83;12.50;;;8.10;93.30;;;;;;5089102;28;20429;-74
2021/11/18 08:22:24;;;;;;;21.53;11.47;;;8.20;93.00;;;;;;5088547;28;20273;-75
2021/11/18 08:24:50;;;;;;;20.97;10.80;;;8.10;93.00;;;;;;5086744;28;20195;-76
2021/11/18 08:27:16;;;;;;;23.27;10.43;;;8.20;93.20;;;;;;5088985;28;20211;-76
2021/11/18 08:29:42;;;;;;;31.20;11.33;;;8.20;93.30;;;;;;5088950;28;20677;-76
2021/11/18 08:32:08;;;;;;;24.40;11.83;;;8.40;93.30;;;;;;5088885;28;20193;-76
2021/11/18 08:34:34;;;;;;;23.93;10.50;;;8.40;93.20;;;;;;5087962;28;20187;-75
2021/11/18 08:37:00;;;;;;;28.93;12.80;;;8.40;93.00;;;;;;5088093;28;20441;-75
2021/11/18 08:39:27;;;;;;;22.73;11.47;;;8.50;92.80;;;;;;5088338;28;20471;-76
2021/11/18 08:42:02;;;;;;;25.70;12.17;;;8.50;92.40;;;;;;5088530;28;20444;-76
2021/11/18 08:44:31;;;;;;;28.20;11.57;;;8.50;92.20;;;;;;5088333;28;20417;-76
2021/11/18 08:46:58;;;;;;;29.03;12.10;;;8.50;92.40;;;;;;5090325;28;20443;-76
2021/11/18 08:49:24;;;;;;;25.93;12.40;;;8.50;92.40;;;;;;5088558;28;20505;-76
2021/11/18 08:51:52;;;;;;;34.93;14.20;;;8.60;92.20;;;;;;5088418;28;20427;-76
2021/11/18 08:54:22;;;;;;;29.40;13.67;;;8.60;92.20;;;;;;5089836;28;20433;-76
2021/11/18 08:56:51;;;;;;;28.20;13.20;;;8.40;92.00;;;;;;5088161;28;20417;-75
2021/11/18 08:59:18;;;;;;;34.03;12.47;;;8.40;92.10;;;;;;5082474;28;20421;-76
2021/11/18 09:01:53;;;;;;;40.40;14.30;;;8.50;92.40;;;;;;5092203;28;20435;-77
2021/11/18 09:04:20;;;;;;;25.80;11.33;;;8.50;92.10;;;;;;5091772;28;20545;-76
2021/11/18 09:06:47;;;;;;;29.60;12.30;;;8.50;92.20;;;;;;5091643;28;20509;-77
2021/11/18 09:09:17;;;;;;;35.17;13.40;;;8.40;92.20;;;;;;5091354;28;21012;-76
2021/11/18 09:11:45;;;;;;;38.00;13.13;;;8.40;92.20;;;;;;5092376;28;20425;-75
2021/11/18 09:14:12;;;;;;;33.87;14.07;;;8.40;92.30;;;;;;5092033;28;20429;-76
2021/11/18 09:16:40;;;;;;;28.10;12.00;;;8.40;92.40;;;;;;5091223;28;20481;-76
2021/11/18 09:19:11;;;;;;;30.87;13.13;;;8.40;92.50;;;;;;5092267;28;20930;-76
2021/11/18 09:21:38;;;;;;;36.53;14.63;;;8.50;92.30;;;;;;5092192;28;20429;-76
2021/11/18 09:24:07;;;;;;;39.70;14.40;;;8.40;92.30;;;;;;5091770;28;20433;-75
2021/11/18 09:26:37;;;;;;;33.80;12.67;;;8.30;92.50;;;;;;5084278;28;20880;-75
2021/11/18 09:29:04;;;;;;;30.50;11.73;;;8.40;92.50;;;;;;5091966;28;20576;-76
2021/11/18 09:31:30;;;;;;;32.97;13.03;;;8.40;92.60;;;;;;5083836;28;20421;-76
2021/11/18 09:33:58;;;;;;;28.57;12.27;;;8.40;92.50;;;;;;5089726;28;20441;-75
2021/11/18 09:36:27;;;;;;;24.93;11.90;;;8.40;92.50;;;;;;5091789;28;20880;-75
2021/11/18 09:38:55;;;;;;;30.77;11.70;;;8.40;92.50;;;;;;5091928;28;20437;-76
2021/11/18 09:41:27;;;;;;;28.50;12.17;;;8.40;92.60;;;;;;5092768;28;20474;-76
2021/11/18 09:44:20;;;;;;;26.20;11.40;;;8.50;92.60;;;;;;5091075;28;20433;-74
2021/11/18 09:47:05;;;;;;;25.80;12.00;;;8.50;92.40;;;;;;5093727;28;20926;-76
2021/11/18 09:49:58;;;;;;;27.07;11.80;;;8.60;92.20;;;;;;5084173;28;20461;-75
2021/11/18 09:53:01;;;;;;;32.93;13.03;;;8.80;92.10;;;;;;5091849;28;20950;-76
2021/11/18 09:55:58;;;;;;;23.00;11.93;;;8.80;91.60;;;;;;5092741;28;20421;-75
2021/11/18 09:59:10;;;;;;;25.63;11.63;;;8.90;91.50;;;;;;5094265;28;20513;-75
2021/11/18 10:01:56;;;;;;;26.67;11.70;;;9.00;91.40;;;;;;5087461;28;20457;-75
2021/11/18 10:04:37;;;;;;;31.83;12.70;;;9.00;91.10;;;;;;5089992;28;20437;-77
2021/11/18 10:07:28;;;;;;;30.40;13.60;;;9.00;91.10;;;;;;5090978;28;20445;-75
2021/11/18 10:10:03;;;;;;;28.70;13.57;;;8.90;91.20;;;;;;5085027;28;20473;-74
2021/11/18 10:12:50;;;;;;;32.10;12.60;;;9.00;91.60;;;;;;5082277;28;20424;-76
2021/11/18 10:15:21;;;;;;;28.43;12.70;;;9.10;91.10;;;;;;5091467;28;21108;-75
2021/11/18 10:17:58;;;;;;;28.67;11.73;;;9.20;90.70;;;;;;5091339;28;20532;-76
2021/11/18 10:20:34;;;;;;;26.30;12.23;;;9.20;90.40;;;;;;5091402;28;20429;-75
2021/11/18 10:23:07;;;;;;;28.47;12.20;;;9.10;90.40;;;;;;5091282;28;20482;-74
2021/11/18 10:25:43;;;;;;;33.60;14.00;;;9.30;90.80;;;;;;5082585;28;20570;-75
2021/11/18 10:28:21;;;;;;;29.23;13.80;;;9.50;90.40;;;;;;5091223;28;20441;-75
2021/11/18 10:30:54;;;;;;;21.67;11.67;;;9.70;90.00;;;;;;5095075;28;20425;-76
2021/11/18 10:33:38;;;;;;;33.13;13.60;;;9.90;89.60;;;;;;5098760;28;20429;-77
2021/11/18 10:36:13;;;;;;;24.53;12.53;;;10.10;88.60;;;;;;5097816;28;20512;-76
2021/11/18 10:38:43;;;;;;;21.97;11.33;;;10.30;87.30;;;;;;5097812;28;20440;-76
2021/11/18 10:41:49;;;;;;;26.77;12.20;;;10.30;86.30;;;;;;5099655;28;20447;-76
2021/11/18 10:44:17;;;;;;;24.10;11.03;;;10.30;86.00;;;;;;5030180;28;20423;-76
2021/11/18 10:47:09;;;;;;;26.37;10.73;;;10.30;85.90;;;;;;5011142;28;20869;-76
2021/11/18 10:50:21;;;;;;;24.77;10.97;;;10.40;85.50;;;;;;4982446;28;20475;-78
2021/11/18 10:53:00;;;;;;;24.30;11.40;;;10.50;85.60;;;;;;4998767;28;20545;-75
2021/11/18 10:55:38;;;;;;;24.80;11.50;;;10.40;84.30;;;;;;5013249;28;20871;-76
2021/11/18 10:58:24;;;;;;;23.20;11.77;;;10.30;84.70;;;;;;5029316;28;20534;-78
2021/11/18 11:00:55;;;;;;;25.40;11.70;;;10.30;85.00;;;;;;5006419;28;20505;-75
2021/11/18 11:03:21;;;;;;;23.80;10.57;;;10.40;84.60;;;;;;5014320;28;20466;-75
2021/11/18 11:05:48;;;;;;;26.63;11.60;;;10.40;84.30;;;;;;5067895;28;20579;-74
2021/11/18 11:08:29;;;;;;;25.43;11.90;;;10.50;83.80;;;;;;5044844;28;20456;-76
2021/11/18 11:11:01;;;;;;;27.17;11.40;;;10.40;84.10;;;;;;5018510;28;20980;-76
2021/11/18 11:13:59;;;;;;;25.20;11.30;;;10.50;84.30;;;;;;5032546;28;20431;-77
2021/11/18 11:16:55;;;;;;;23.70;10.43;;;10.60;84.40;;;;;;5016661;28;20806;-75
2021/11/18 11:19:30;;;;;;;20.27;8.37;;;10.70;83.30;;;;;;5070518;27;20430;-76
2021/11/18 11:22:05;;;;;;;18.83;9.67;;;10.90;81.80;;;;;;5091524;28;20923;-76
2021/11/18 11:25:04;;;;;;;17.60;9.00;;;11.10;81.80;;;;;;5088069;28;20432;-75
2021/11/18 11:27:46;;;;;;;20.77;9.43;;;11.30;80.20;;;;;;5091255;28;20601;-77
2021/11/18 11:30:19;;;;;;;24.67;10.87;;;11.40;79.70;;;;;;5088439;28;20471;-74
2021/11/18 11:32:50;;;;;;;20.30;11.00;;;11.50;79.70;;;;;;5088554;28;20440;-76
2021/11/18 11:35:30;;;;;;;19.70;11.90;;;11.50;79.70;;;;;;5087856;28;20898;-76
2021/11/18 11:38:15;;;;;;;28.07;11.97;;;11.50;79.30;;;;;;5089782;28;20445;-76
2021/11/18 11:40:56;;;;;;;28.40;11.00;;;11.40;80.20;;;;;;5089624;28;20562;-75
2021/11/18 11:43:43;;;;;;;22.43;10.77;;;11.20;80.20;;;;;;5089912;28;20420;-74
2021/11/18 11:46:26;;;;;;;22.47;10.37;;;11.00;81.20;;;;;;5089220;28;20474;-76
2021/11/18 11:49:16;;;;;;;29.13;12.67;;;10.90;82.70;;;;;;5088131;28;20544;-76
2021/11/18 11:52:16;;;;;;;27.90;11.80;;;10.70;83.40;;;;;;5090276;28;20417;-75
2021/11/18 11:55:03;;;;;;;23.73;11.80;;;10.60;84.10;;;;;;5085102;28;21115;-77
2021/11/18 11:57:47;;;;;;;26.33;11.30;;;10.50;84.60;;;;;;5094278;28;20510;-75
2021/11/18 12:00:31;;;;;;;30.37;12.37;;;10.40;85.20;;;;;;5090687;28;20417;-76
2021/11/18 12:02:56;;;;;;;27.37;12.07;;;10.30;85.60;;;;;;5091603;28;20421;-76
2021/11/18 12:05:28;;;;;;;24.20;12.40;;;10.20;86.20;;;;;;5089238;28;20417;-76
2021/11/18 12:08:24;;;;;;;21.87;11.80;;;10.10;86.90;;;;;;5089557;28;20241;-76
2021/11/18 12:11:02;;;;;;;33.30;13.37;;;10.00;87.30;;;;;;5084558;28;20813;-76
2021/11/18 12:13:40;;;;;;;27.50;11.87;;;10.00;87.80;;;;;;5086781;28;20417;-77
2021/11/18 12:16:16;;;;;;;23.03;11.30;;;10.00;88.00;;;;;;5088447;28;20915;-75
2021/11/18 12:19:06;;;;;;;22.70;12.07;;;10.00;88.10;;;;;;5092391;28;20951;-76
2021/11/18 12:21:32;;;;;;;28.30;12.20;;;10.00;88.30;;;;;;5073282;28;20510;-75
2021/11/18 12:23:58;;;;;;;26.80;12.93;;;10.00;88.30;;;;;;5089909;28;20817;-77
2021/11/18 12:26:25;;;;;;;28.97;12.83;;;10.00;88.10;;;;;;5090485;28;20414;-77
2021/11/18 12:29:10;;;;;;;17.83;9.87;;;10.00;88.10;;;;;;5087323;28;20214;-75
2021/11/18 12:31:37;;;;;;;26.57;11.00;;;10.10;88.30;;;;;;5089183;28;20448;-77
2021/11/18 12:34:11;;;;;;;25.97;11.67;;;10.10;87.80;;;;;;5088110;28;20508;-77
2021/11/18 12:37:18;;;;;;;20.90;10.10;;;10.10;87.60;;;;;;5091687;28;20435;-77
2021/11/18 12:39:50;;;;;;;21.53;10.00;;;9.90;87.80;;;;;;5010269;28;20439;-75
2021/11/18 12:42:44;;;;;;;20.30;10.43;;;9.90;88.10;;;;;;5028342;28;20431;-77
2021/11/18 12:45:27;;;;;;;18.03;9.30;;;10.00;88.00;;;;;;5026151;28;20895;-75
2021/11/18 12:48:03;;;;;;;17.07;9.00;;;10.10;87.80;;;;;;5029307;28;20523;-76
2021/11/18 12:50:49;;;;;;;16.80;8.70;;;10.10;87.80;;;;;;5029177;28;20424;-76
2021/11/18 12:53:19;;;;;;;18.27;9.90;;;10.20;87.60;;;;;;5029606;28;20438;-75
2021/11/18 12:56:10;;;;;;;19.93;10.40;;;10.20;87.00;;;;;;5028680;28;20427;-76
2021/11/18 12:58:59;;;;;;;22.33;9.17;;;10.20;86.90;;;;;;5009080;28;20474;-78